Vittoria — 3FJY5 — position and weather

sailwx.info

Track history (hours):
 
Tides and Currents Weather Stations Pressure Air Temp Water Temp Dewpoint Dewpoint Depression Visibility Wind Speed Wind Dir Waves Ship Positions

Vittoria

Last reported at 2018-Jan-19 12:27 UTC. Time now 2018-Feb-21 03:32 UTC.
Position N 22°17' E 120°11'.
Warning: this ship's position is 32 days out of date.

Length 211 m; draft 8.4 m.

Type: Cargo ship. MMSI: 354314000.

Date/timePositionNaut miles runAvg speedWind from/ knotsBaromVisibWave heightAir tempDewpointWater temp
2018-Jan-19 12:27N 22°17' E 120°11'612.5
2018-Jan-19 12:00N 22°23' E 120°11'612.6
2018-Jan-19 11:31N 22°29' E 120°11'612.5
2018-Jan-19 11:00N 22°35' E 120°10'612.4
2018-Jan-19 10:30N 22°41' E 120°06'612.4
2018-Jan-19 10:00N 22°47' E 120°05'612.8
2018-Jan-19 09:30N 22°52' E 120°02'713.1
2018-Jan-19 09:00N 22°58' E 119°59'713.0
2018-Jan-19 08:29N 23°05' E 119°56'713.5
2018-Jan-19 08:00N 23°11' E 119°57'713.8
2018-Jan-19 07:30N 23°18' E 119°57'713.9
2018-Jan-19 07:00N 23°25' E 119°57'713.7
2018-Jan-19 06:29N 23°32' E 119°57'713.8
2018-Jan-19 06:00N 23°39' E 119°58'  
Track history (hours):
 
Tides and Currents Weather Stations Pressure Air Temp Water Temp Dewpoint Dewpoint Depression Visibility Wind Speed Wind Dir Waves Ship Positions

Vittoria

Last reported at 2018-Jan-19 12:27 UTC. Time now 2018-Feb-21 03:32 UTC.
Position N 22°17' E 120°11'.
Warning: this ship's position is 32 days out of date.

Length 211 m; draft 8.4 m.

Type: Cargo ship. MMSI: 354314000.

Date/timePositionNaut miles runAvg speedWind from/ knotsBaromVisibWave heightAir tempDewpointWater temp
2018-Jan-19 12:27N 22°17' E 120°11'612.5
2018-Jan-19 12:00N 22°23' E 120°11'612.6
2018-Jan-19 11:31N 22°29' E 120°11'612.5
2018-Jan-19 11:00N 22°35' E 120°10'612.4
2018-Jan-19 10:30N 22°41' E 120°06'612.4
2018-Jan-19 10:00N 22°47' E 120°05'612.8
2018-Jan-19 09:30N 22°52' E 120°02'713.1
2018-Jan-19 09:00N 22°58' E 119°59'713.0
2018-Jan-19 08:29N 23°05' E 119°56'713.5
2018-Jan-19 08:00N 23°11' E 119°57'713.8
2018-Jan-19 07:30N 23°18' E 119°57'713.9
2018-Jan-19 07:00N 23°25' E 119°57'713.7
2018-Jan-19 06:29N 23°32' E 119°57'713.8
2018-Jan-19 06:00N 23°39' E 119°58'  

Dump ship's entire track history